Thunder radar more information blitzortung!


Radar de pluja more information rain snow radar


Visita la nostra xarxa de llocs de meteo:

Template documentation
and downloads

And another site



No particular awareness of the weather is required.    There are no Weather-warnings

Pagina Historial Weather Underground text

Diari Resum May 8, 2016 Unitats:  Mètric    Imperial   Tant
« Previous Dia
SegĂźent Dia »
Diari Setmana Mensual Anual Personalitzada
  Maxima: Minima: Media:
Temperatura: -17.8 °C -11.1 °C -9.8 °C
Punt de rosada: -17.8 °C -13 °C -10.9 °C
Humitat: Humidity % 73 % 87 %
Wind Speed: 0 km/h 0 km/h 10 km/h
RĂ fegues de vent: 0 km/h - -
Vent:- - ENE
Pression baro: 0 hPa 34097 hPa -
Precipitacions: 50.8 mm    
Historical Graphs
 
 
Dades de taula per May 8, 2016
Temps Temperatura Punt de rosada Pression baro Vent Wind Speed RĂ fegues de vent Humitat Rainfall Rate (Hourly)
-17.8 °C -17.8 °C 0 hPa Calm     Humidity % 0 mm
00:02 -10.1 °C -12.7 °C 34198.6 hPa ENE 3.7 km/h 3.7 km/h 73 % 0 mm
00:05 -11.1 °C -12.9 °C 34130.9 hPa Calm   5.1 km/h 80 % 0 mm
00:07 -10.1 °C -12.7 °C 34198.6 hPa ENE 4.2 km/h 4.2 km/h 73 % 0 mm
00:15 -11.1 °C -12.9 °C 34130.9 hPa Calm     80 % 0 mm
00:25 -11.1 °C -12.9 °C 34130.9 hPa Calm   2.6 km/h 80 % 0 mm
00:35 -11.1 °C -13 °C 34130.9 hPa Calm   5.1 km/h 79 % 0 mm
00:45 -11.1 °C -13 °C 34130.9 hPa SW 2.6 km/h 5.1 km/h 79 % 0 mm
00:55 -11.1 °C -13 °C 34130.9 hPa Calm     79 % 0 mm
01:05 -11.1 °C -13 °C 34130.9 hPa Calm   2.6 km/h 79 % 0 mm
01:15 -11.1 °C -12.9 °C 34130.9 hPa Calm   2.6 km/h 80 % 0 mm
01:25 -11.1 °C -12.9 °C 34130.9 hPa Calm     80 % 0 mm
01:35 -11 °C -12.9 °C 34130.9 hPa Calm   2.6 km/h 80 % 0 mm
01:45 -11 °C -12.9 °C 34130.9 hPa ESE 2.6 km/h 5.1 km/h 80 % 0 mm
01:55 -11 °C -12.9 °C 34130.9 hPa South 2.6 km/h 5.1 km/h 80 % 0 mm
02:05 -10.9 °C -12.8 °C 34130.9 hPa WSW 2.6 km/h 5.1 km/h 80 % 0 mm
02:15 -10.9 °C -12.7 °C 34130.9 hPa WSW 2.6 km/h 5.1 km/h 80 % 0 mm
02:25 -10.8 °C -12.8 °C 34130.9 hPa SW 5.1 km/h 5.1 km/h 79 % 0 mm
02:35 -10.8 °C -12.7 °C 34130.9 hPa Calm   5.1 km/h 80 % 0 mm
02:45 -10.8 °C -12.7 °C 34130.9 hPa Calm   5.1 km/h 80 % 0 mm
02:55 -10.7 °C -12.6 °C 34130.9 hPa SW 2.6 km/h 5.1 km/h 80 % 0 mm
03:05 -10.6 °C -12.6 °C 34130.9 hPa East 7.7 km/h 10.3 km/h 79 % 0 mm
03:15 -10.5 °C -12.4 °C 34130.9 hPa ENE 2.6 km/h 5.1 km/h 79 % 0 mm
03:25 -10.4 °C -12.4 °C 34130.9 hPa ENE 5.1 km/h 5.1 km/h 79 % 0 mm
03:35 -10.4 °C -12.6 °C 34130.9 hPa East 5.1 km/h 7.7 km/h 78 % 0 mm
03:45 -10.4 °C -12.6 °C 34164.7 hPa East 7.7 km/h 10.3 km/h 78 % 0 mm
03:55 -10.4 °C -12.4 °C 34164.7 hPa East 7.7 km/h 10.3 km/h 79 % 0 mm
04:05 -10.6 °C -12.4 °C 34164.7 hPa East 5.1 km/h 7.7 km/h 80 % 0 mm
04:15 -10.6 °C -12.4 °C 34164.7 hPa SE 2.6 km/h 5.1 km/h 80 % 0 mm
04:25 -10.7 °C -12.5 °C 34130.9 hPa Calm   5.1 km/h 81 % 0 mm
04:35 -10.7 °C -12.2 °C 34130.9 hPa Calm   5.1 km/h 83 % 0 mm
04:45 -10.7 °C -12.3 °C 34130.9 hPa SE 2.6 km/h 7.7 km/h 83 % 0 mm
04:55 -10.7 °C -12.1 °C 34130.9 hPa ESE 5.1 km/h 7.7 km/h 84 % 0 mm
05:05 -10.7 °C -12.2 °C 34130.9 hPa SE 5.1 km/h 5.1 km/h 83 % 0 mm
05:15 -10.8 °C -12.3 °C 34130.9 hPa Calm   5.1 km/h 84 % 0 mm
05:25 -10.7 °C -12 °C 34130.9 hPa NW 2.6 km/h 7.7 km/h 86 % 0 mm
05:35 -10.7 °C -12.1 °C 34130.9 hPa NNE 2.6 km/h 5.1 km/h 85 % 0 mm
05:45 -10.8 °C -12.1 °C 34130.9 hPa NE 5.1 km/h 7.7 km/h 85 % 0 mm
05:55 -10.7 °C -12 °C 34130.9 hPa NE 2.6 km/h 5.1 km/h 86 % 0 mm
06:05 -10.7 °C -12 °C 34130.9 hPa NNE 2.6 km/h 5.1 km/h 86 % 0 mm
06:15 -10.7 °C -11.9 °C 34130.9 hPa NE 2.6 km/h 5.1 km/h 87 % 0 mm
11:22 -10.7 °C -11.8 °C 34130.9 hPa ENE 4.2 km/h 4.2 km/h 87 % 0 mm
11:27 -10.7 °C -11.9 °C 34130.9 hPa NE 6.3 km/h 6.3 km/h 87 % 0 mm
11:32 -10.7 °C -11.8 °C 34130.9 hPa ENE 3.1 km/h   88 % 0 mm
11:37 -10.6 °C -11.7 °C 34130.9 hPa NNE 6 km/h 6 km/h 88 % 0 mm
11:42 -10.6 °C -11.6 °C 34130.9 hPa North 6 km/h   88 % 0 mm
11:47 -10.6 °C -11.6 °C 34130.9 hPa ENE 3.7 km/h   89 % 0 mm
11:52 -10.6 °C -11.6 °C 34130.9 hPa NE 6.8 km/h 6.8 km/h 89 % 0 mm
11:58 -10.4 °C -11.4 °C 34130.9 hPa NE 6 km/h 6 km/h 89 % 0 mm
12:03 -10.4 °C -11.4 °C 34130.9 hPa NE 6 km/h 6 km/h 89 % 0 mm
12:08 -10.3 °C -11.2 °C 34130.9 hPa ENE 9 km/h 9 km/h 90 % 0 mm
12:13 -10.3 °C -11.2 °C 34097 hPa ENE 12.7 km/h 12.7 km/h 90 % 0 mm
12:18 -10.2 °C -11.1 °C 34097 hPa NNE 9 km/h 9 km/h 90 % 0 mm
12:23 -10.2 °C -11.1 °C 34097 hPa ENE 8.5 km/h 8.5 km/h 90 % 25.4 mm
12:28 -10.2 °C -11.1 °C 34097 hPa ESE 6 km/h 6.3 km/h 90 % 25.4 mm
12:33 -10.2 °C -11.1 °C 34097 hPa ENE 9 km/h 9 km/h 90 % 25.4 mm
12:38 -10.2 °C -11.1 °C 34097 hPa East 15 km/h 15 km/h 90 % 25.4 mm
12:43 -10.1 °C -11 °C 34130.9 hPa ENE 15 km/h 15 km/h 90 % 25.4 mm
12:48 -10 °C -10.9 °C 34130.9 hPa NE 10.3 km/h 10.3 km/h 90 % 25.4 mm
12:58 -10 °C -10.8 °C 34130.9 hPa ENE 15 km/h 15 km/h 91 % 25.4 mm
13:03 -9.9 °C -10.7 °C 34130.9 hPa ENE 15 km/h 15 km/h 91 % 25.4 mm
13:08 -9.9 °C -10.7 °C 34130.9 hPa ENE 19.2 km/h 19.2 km/h 91 % 25.4 mm
13:13 -9.9 °C -10.6 °C 34130.9 hPa East 11.9 km/h 11.9 km/h 92 % 25.4 mm
13:18 -9.8 °C -10.5 °C 34130.9 hPa NE 11.9 km/h 11.9 km/h 92 % 25.4 mm
13:23 -9.8 °C -10.5 °C 34130.9 hPa East 20.9 km/h 20.9 km/h 92 % 0 mm
13:28 -9.7 °C -10.4 °C 34130.9 hPa ENE 7.6 km/h 7.6 km/h 92 % 0 mm
13:33 -9.8 °C -10.5 °C 34130.9 hPa East 15 km/h 15 km/h 92 % 0 mm
13:38 -9.8 °C -10.5 °C 34130.9 hPa East 18.3 km/h 18.3 km/h 92 % 0 mm
13:43 -9.7 °C -10.4 °C 34130.9 hPa NE 6 km/h 6 km/h 92 % 0 mm
13:48 -9.8 °C -10.5 °C 34130.9 hPa ENE 15 km/h 15 km/h 92 % 0 mm
13:53 -9.7 °C -10.4 °C 34130.9 hPa ENE 9 km/h 9 km/h 92 % 0 mm
13:58 -9.7 °C -10.4 °C 34130.9 hPa East 15 km/h 15 km/h 92 % 0 mm
14:03 -9.7 °C -10.4 °C 34130.9 hPa ESE 15 km/h 15 km/h 92 % 0 mm
14:08 -9.7 °C -10.4 °C 34130.9 hPa ENE 15 km/h 15 km/h 92 % 0 mm
14:18 -9.7 °C -10.3 °C 34130.9 hPa NE 15 km/h 15 km/h 93 % 0 mm
14:23 -9.5 °C -10.1 °C 34130.9 hPa ENE 11.9 km/h 11.9 km/h 93 % 0 mm
14:28 -9.6 °C -10.2 °C 34130.9 hPa East 11.9 km/h 11.9 km/h 93 % 0 mm
14:33 -9.6 °C -10.2 °C 34130.9 hPa NE 9 km/h 9 km/h 93 % 0 mm
14:38 -9.6 °C -10.2 °C 34130.9 hPa East 6 km/h 6.8 km/h 93 % 0 mm
14:43 -9.5 °C -10.1 °C 34130.9 hPa SE 6 km/h 6 km/h 93 % 0 mm
14:48 -9.4 °C -10.1 °C 34130.9 hPa East 6.3 km/h 6.3 km/h 93 % 0 mm
14:53 -9.4 °C -10 °C 34130.9 hPa East 9 km/h 9 km/h 93 % 0 mm
14:58 -9.3 °C -9.8 °C 34097 hPa ESE 11.9 km/h 11.9 km/h 94 % 0 mm
15:03 -9.3 °C -9.9 °C 34097 hPa ESE 15 km/h 15 km/h 93 % 0 mm
15:08 -9.3 °C -9.9 °C 34097 hPa ENE 15 km/h 15 km/h 93 % 0 mm
15:13 -9.3 °C -9.9 °C 34130.9 hPa ESE 7.6 km/h 7.6 km/h 93 % 0 mm
15:18 -9.2 °C -9.8 °C 34130.9 hPa East 11.9 km/h 11.9 km/h 93 % 0 mm
15:23 -9.1 °C -9.8 °C 34130.9 hPa ENE 9 km/h 9 km/h 93 % 0 mm
15:28 -9.1 °C -9.8 °C 34130.9 hPa ENE 9 km/h 9 km/h 93 % 0 mm
15:33 -9 °C -9.6 °C 34130.9 hPa East 9 km/h 9 km/h 93 % 25.4 mm
15:38 -8.9 °C -9.5 °C 34130.9 hPa ENE 11.9 km/h 11.9 km/h 93 % 25.4 mm
15:43 -8.9 °C -9.6 °C 34130.9 hPa ENE 11.9 km/h 11.9 km/h 92 % 25.4 mm
15:48 -8.8 °C -9.6 °C 34130.9 hPa ENE 11.9 km/h 11.9 km/h 92 % 25.4 mm
15:53 -8.8 °C -9.6 °C 34130.9 hPa NE 17.9 km/h 17.9 km/h 91 % 25.4 mm
15:58 -8.8 °C -9.7 °C 34097 hPa East 15 km/h 15 km/h 91 % 25.4 mm
16:03 -8.8 °C -9.8 °C 34097 hPa ESE 17.9 km/h 17.9 km/h 90 % 25.4 mm
16:08 -8.8 °C -9.8 °C 34097 hPa ENE 15 km/h 15 km/h 90 % 25.4 mm
16:13 -8.8 °C -9.8 °C 34097 hPa ESE 17.9 km/h 17.9 km/h 90 % 25.4 mm
16:18 -8.8 °C -9.8 °C 34097 hPa ESE 19.2 km/h 19.2 km/h 90 % 25.4 mm
16:23 -8.8 °C -9.8 °C 34097 hPa ESE 23.8 km/h 23.8 km/h 89 % 25.4 mm
16:28 -8.8 °C -9.8 °C 34130.9 hPa East 17.9 km/h 17.9 km/h 89 % 25.4 mm
16:33 -8.8 °C -9.8 °C 34130.9 hPa East 23.8 km/h 23.8 km/h 89 % 0 mm
16:38 -8.7 °C -9.8 °C 34130.9 hPa ESE 23.8 km/h 23.8 km/h 88 % 0 mm
16:43 -8.7 °C -9.8 °C 34130.9 hPa ESE 23.8 km/h 23.8 km/h 88 % 0 mm
16:48 -8.8 °C -9.9 °C 34130.9 hPa East 17.9 km/h 17.9 km/h 88 % 0 mm
16:53 -8.8 °C -9.8 °C 34130.9 hPa ESE 20.9 km/h 20.9 km/h 89 % 0 mm
16:58 -8.8 °C -9.8 °C 34130.9 hPa ESE 23.8 km/h 23.8 km/h 89 % 0 mm
17:03 -8.8 °C -9.8 °C 34130.9 hPa ESE 23.8 km/h 23.8 km/h 89 % 0 mm
17:08 -8.9 °C -9.9 °C 34130.9 hPa East 29.8 km/h 29.8 km/h 89 % 0 mm
17:13 -8.8 °C -9.8 °C 34130.9 hPa ESE 25.9 km/h 25.9 km/h 89 % 0 mm
17:18 -8.8 °C -9.9 °C 34130.9 hPa East 20.9 km/h 20.9 km/h 88 % 0 mm
17:23 -8.9 °C -10.1 °C 34130.9 hPa East 23.8 km/h 23.8 km/h 87 % 0 mm
17:28 -8.9 °C -10.1 °C 34097 hPa East 27.2 km/h 27.2 km/h 87 % 0 mm
17:33 -8.9 °C -10.2 °C 34097 hPa East 20.9 km/h 20.9 km/h 86 % 0 mm
17:38 -8.9 °C -10.2 °C 34097 hPa ESE 20.9 km/h 20.9 km/h 86 % 0 mm
17:43 -9 °C -10.4 °C 34097 hPa ESE 17.9 km/h 17.9 km/h 85 % 0 mm
17:48 -8.9 °C -10.2 °C 34097 hPa ESE 15 km/h 15 km/h 86 % 0 mm
17:53 -8.9 °C -10.2 °C 34097 hPa ESE 20.9 km/h 20.9 km/h 86 % 0 mm
17:58 -9 °C -10.3 °C 34130.9 hPa ESE 17.9 km/h 17.9 km/h 86 % 0 mm
18:03 -8.9 °C -10.2 °C 34130.9 hPa East 15 km/h 15 km/h 86 % 0 mm
18:08 -8.9 °C -10.3 °C 34130.9 hPa East 15 km/h 15 km/h 85 % 0 mm
18:13 -8.9 °C -10.3 °C 34130.9 hPa SW 15 km/h 15 km/h 85 % 0 mm
18:18 -8.9 °C -10.3 °C 34130.9 hPa ESE 11.9 km/h 11.9 km/h 85 % 0 mm
18:23 -9 °C -10.5 °C 34130.9 hPa SE 23.8 km/h 23.8 km/h 84 % 0 mm
18:28 -9 °C -10.5 °C 34130.9 hPa ESE 9.8 km/h 9.8 km/h 84 % 0 mm
18:33 -9 °C -10.5 °C 34130.9 hPa East 11.1 km/h 11.1 km/h 84 % 0 mm
18:38 -9.1 °C -10.6 °C 34130.9 hPa ESE 15 km/h 15 km/h 84 % 0 mm
18:48 -9.1 °C -10.6 °C 34097 hPa ESE 11.9 km/h 11.9 km/h 84 % 0 mm
18:53 -9.1 °C -10.6 °C 34097 hPa East 11.9 km/h 11.9 km/h 84 % 0 mm
19:03 -9.1 °C -10.6 °C 34130.9 hPa ENE 6.3 km/h 7.6 km/h 84 % 0 mm
19:08 -9.2 °C -10.7 °C 34130.9 hPa ENE 6.3 km/h 7.6 km/h 84 % 0 mm
19:13 -9.2 °C -10.7 °C 34130.9 hPa ENE 6.3 km/h 7.6 km/h 84 % 0 mm
19:15 -9.7 °C -10.7 °C 34164.7 hPa NE 12.9 km/h 12.9 km/h 89 % 0 mm
19:18 -9.2 °C -10.7 °C 34130.9 hPa ENE 6.3 km/h 7.6 km/h 84 % 0 mm
19:23 -9.2 °C -10.7 °C 34130.9 hPa ENE 6.3 km/h 7.6 km/h 84 % 0 mm
19:28 -9.3 °C -10.8 °C 34130.9 hPa ENE 6.3 km/h 7.6 km/h 84 % 0 mm
19:33 -9.3 °C -10.7 °C 34130.9 hPa ENE 6.3 km/h 7.6 km/h 85 % 0 mm
19:35 -9.7 °C -10.7 °C 34164.7 hPa NNE 12.9 km/h 15.6 km/h 89 % 0 mm
19:38 -9.3 °C -10.7 °C 34130.9 hPa ENE 9 km/h 11.1 km/h 85 % 0 mm
19:43 -9.3 °C -10.7 °C 34130.9 hPa ENE 9 km/h 11.1 km/h 85 % 0 mm
19:45 -9.7 °C -10.7 °C 34164.7 hPa NNE 12.9 km/h 15.6 km/h 89 % 0 mm
19:48 -9.3 °C -10.6 °C 34130.9 hPa ENE 9 km/h 11.1 km/h 86 % 0 mm
19:53 -9.4 °C -10.7 °C 34130.9 hPa ENE 9 km/h 11.1 km/h 86 % 0 mm
19:55 -9.7 °C -10.7 °C 34164.7 hPa NNE 7.7 km/h 10.3 km/h 89 % 0 mm
19:58 -9.4 °C -10.6 °C 34130.9 hPa ENE 9 km/h 11.1 km/h 87 % 0 mm
20:03 -9.4 °C -10.6 °C 34130.9 hPa ENE 9 km/h 11.1 km/h 87 % 0 mm
20:05 -9.7 °C -10.8 °C 34164.7 hPa NNE 7.7 km/h 12.9 km/h 88 % 0 mm
20:08 -9.4 °C -10.7 °C 34130.9 hPa ENE 9 km/h 11.1 km/h 87 % 0 mm
20:13 -9.4 °C -10.7 °C 34130.9 hPa ENE 9 km/h 11.1 km/h 87 % 0 mm
20:15 -9.6 °C -10.7 °C 34130.9 hPa NNE 7.7 km/h 7.7 km/h 88 % 0 mm
20:18 -9.4 °C -10.6 °C 34130.9 hPa ENE 9 km/h 11.1 km/h 88 % 0 mm
20:23 -9.5 °C -10.6 °C 34130.9 hPa ENE 9 km/h 9 km/h 88 % 0 mm
20:25 -9.6 °C -10.7 °C 34164.7 hPa NNE 12.9 km/h 12.9 km/h 88 % 0 mm
20:28 -9.5 °C -10.6 °C 34130.9 hPa ENE 10.3 km/h 10.3 km/h 88 % 0 mm
20:33 -9.5 °C -10.6 °C 34130.9 hPa ENE 11.9 km/h 11.9 km/h 88 % 0 mm
20:35 -9.6 °C -10.7 °C 34164.7 hPa NNE 12.9 km/h 12.9 km/h 88 % 0 mm
20:38 -9.6 °C -10.7 °C 34130.9 hPa ENE 6 km/h 6.3 km/h 88 % 0 mm
20:43 -9.6 °C -10.6 °C 34130.9 hPa NNE 11.9 km/h 11.9 km/h 89 % 0 mm
20:45 -9.6 °C -10.7 °C 34130.9 hPa NNE 5.1 km/h 10.3 km/h 88 % 0 mm
20:48 -9.6 °C -10.6 °C 34130.9 hPa ENE 9 km/h 9.8 km/h 89 % 0 mm
20:53 -9.6 °C -10.6 °C 34130.9 hPa ENE 9 km/h 9.8 km/h 89 % 0 mm
20:55 -9.6 °C -10.7 °C 34130.9 hPa NE 7.7 km/h 12.9 km/h 88 % 0 mm
20:58 -9.6 °C -10.6 °C 34130.9 hPa ENE 9 km/h 9 km/h 89 % 0 mm
21:03 -9.6 °C -10.6 °C 34130.9 hPa ENE 6.8 km/h 8.5 km/h 89 % 0 mm
21:05 -9.6 °C -10.7 °C 34130.9 hPa ENE 7.7 km/h 15.6 km/h 87 % 0 mm
21:08 -9.7 °C -10.7 °C 34130.9 hPa ENE 6.8 km/h 8.5 km/h 89 % 0 mm
21:13 -9.7 °C -10.6 °C 34130.9 hPa ENE 6.8 km/h 8.5 km/h 90 % 0 mm
21:15 -9.6 °C -10.7 °C 34164.7 hPa NE 5.1 km/h 7.7 km/h 87 % 0 mm
21:18 -9.7 °C -10.7 °C 34130.9 hPa ENE 6.8 km/h 8.5 km/h 89 % 0 mm
21:23 -9.7 °C -10.6 °C 34130.9 hPa ENE 6.8 km/h 8.5 km/h 90 % 0 mm
21:25 -9.6 °C -10.7 °C 34130.9 hPa NE 5.1 km/h 10.3 km/h 87 % 0 mm
21:28 -9.7 °C -10.7 °C 34130.9 hPa ENE 6 km/h 10.3 km/h 89 % 0 mm
21:33 -9.7 °C -10.7 °C 34130.9 hPa NNE 8 km/h 8.5 km/h 89 % 0 mm
21:38 -9.7 °C -10.6 °C 34130.9 hPa ENE 9.8 km/h 9.8 km/h 90 % 0 mm
21:43 -9.8 °C -10.7 °C 34130.9 hPa ENE 9 km/h 9 km/h 90 % 0 mm
21:45 -9.5 °C -10.7 °C 34130.9 hPa NE 7.7 km/h 10.3 km/h 87 % 0 mm
21:48 -9.8 °C -10.7 °C 34130.9 hPa NNE 15.3 km/h 15.3 km/h 90 % 0 mm
21:55 -9.5 °C -10.8 °C 34130.9 hPa NE 7.7 km/h 15.6 km/h 86 % 0 mm
21:58 -9.8 °C -10.7 °C 34130.9 hPa ENE 11.9 km/h 11.9 km/h 90 % 0 mm
22:03 -9.8 °C -10.7 °C 34130.9 hPa ENE 11.9 km/h 11.9 km/h 90 % 0 mm
22:05 -9.6 °C -10.8 °C 34130.9 hPa NE 15.6 km/h 15.6 km/h 86 % 0 mm
22:08 -9.8 °C -10.7 °C 34130.9 hPa ENE 11.9 km/h 11.9 km/h 90 % 0 mm
22:13 -9.8 °C -10.7 °C 34130.9 hPa NNE 6.8 km/h 6.8 km/h 90 % 0 mm
22:15 -9.6 °C -10.7 °C 34130.9 hPa NNE 7.7 km/h 12.9 km/h 87 % 0 mm
22:18 -9.8 °C -10.7 °C 34130.9 hPa NNE 9 km/h 9 km/h 90 % 0 mm
22:23 -9.8 °C -10.7 °C 34130.9 hPa ENE 7.6 km/h 7.6 km/h 90 % 0 mm
22:25 -9.6 °C -10.7 °C 34130.9 hPa NE 7.7 km/h 12.9 km/h 87 % 0 mm
22:28 -9.8 °C -10.7 °C 34130.9 hPa NNE 11.9 km/h 11.9 km/h 90 % 0 mm
22:35 -9.6 °C -10.7 °C 34130.9 hPa NE 15.6 km/h 15.6 km/h 87 % 0 mm
22:43 -9.8 °C -10.7 °C 34164.7 hPa ENE 11.9 km/h 11.9 km/h 90 % 0 mm
22:45 -9.6 °C -10.7 °C 34130.9 hPa ENE 15.6 km/h 15.6 km/h 87 % 0 mm
22:48 -9.7 °C -10.6 °C 34164.7 hPa NE 3.1 km/h 8 km/h 90 % 0 mm
22:53 -9.7 °C -10.6 °C 34164.7 hPa ENE 9 km/h 9 km/h 90 % 0 mm
22:55 -9.6 °C -10.7 °C 34130.9 hPa ENE 7.7 km/h 15.6 km/h 88 % 0 mm
23:03 -9.7 °C -10.6 °C 34164.7 hPa ENE 11.9 km/h 11.9 km/h 90 % 0 mm
23:05 -9.5 °C -10.6 °C 34130.9 hPa ENE 7.7 km/h 15.6 km/h 88 % 0 mm
23:08 -9.7 °C -10.6 °C 34164.7 hPa ENE 11.9 km/h 11.9 km/h 90 % 0 mm
23:13 -9.7 °C -10.6 °C 34198.6 hPa NE 9 km/h 9.3 km/h 90 % 0 mm
23:15 -9.5 °C -10.6 °C 34130.9 hPa ENE 7.7 km/h 10.3 km/h 88 % 0 mm
23:18 -9.7 °C -10.6 °C 34198.6 hPa ENE 15 km/h 15 km/h 90 % 0 mm
23:23 -9.7 °C -10.6 °C 34198.6 hPa ENE 15.3 km/h 15.3 km/h 90 % 0 mm
23:25 -9.4 °C -10.6 °C 34130.9 hPa NE 15.6 km/h 18.2 km/h 88 % 0 mm
23:28 -9.7 °C -10.6 °C 34164.7 hPa ENE 15.3 km/h 15.3 km/h 90 % 0 mm
23:33 -9.7 °C -10.7 °C 34164.7 hPa NNE 9 km/h 9.8 km/h 89 % 0 mm
23:35 -9.4 °C -10.6 °C 34130.9 hPa NE 15.6 km/h 20.8 km/h 88 % 0 mm
23:38 -9.7 °C -10.7 °C 34164.7 hPa NNE 9 km/h 9.8 km/h 89 % 0 mm
23:43 -9.7 °C -10.7 °C 34164.7 hPa NNE 9 km/h 9.8 km/h 89 % 0 mm
23:45 -9.4 °C -10.4 °C 34130.9 hPa ENE 7.7 km/h 15.6 km/h 89 % 0 mm
23:48 -9.7 °C -10.7 °C 34164.7 hPa NNE 9 km/h 9.8 km/h 89 % 0 mm
23:55 -9.4 °C -10.6 °C 34130.9 hPa ENE 15.6 km/h 20.8 km/h 88 % 0 mm
23:58 -9.7 °C -10.7 °C 34164.7 hPa NNE 9 km/h 9.8 km/h 89 % 0 mm
Meteo Sesrovires
Elogis d' Weather Underground - 2 mb

Guio original per  Jim McMurry - jmcmurry@mwt.net Adaptat per a la plantilla per  Wim van der Kuil - Leuven-Template.eu

Trobareu la nostra informacio del temps tambe a:

Weather Underground

AWEKAS